Time;durP1;ratioP1;P1;durP2;ratioP2;P2;SDS_P1;SDS_P2;PMS_P1;PMS_P2;Temp;Humidity;BMP_temperature;BMP_pressure;BME280_temperature;BME280_humidity;BME280_pressure;Samples;Min_cycle;Max_cycle;Signal;HPM_P1;HPM_P2
2021/07/31 00:01:45;;;;;;;;;;;;;;;21.90;70.09;99142.19;5071890;28;825;-59
2021/07/31 00:04:11;;;;;;;;;;;;;;;21.87;70.25;99137.56;5071776;28;826;-58
2021/07/31 00:06:38;;;;;;;;;;;;;;;21.84;70.57;99137.78;5071588;28;893;-59
2021/07/31 00:09:04;;;;;;;;;;;;;;;21.86;70.97;99135.25;5071672;28;845;-59
2021/07/31 00:11:30;;;;;;;;;;;;;;;21.86;71.02;99133.19;5071526;28;1886;-59
2021/07/31 00:13:57;;;;;;;;;;;;;;;21.90;70.98;99147.06;5071863;28;1025;-59
2021/07/31 00:16:24;;;;;;;;;;;;;;;21.90;71.36;99136.56;5071221;28;1248;-59
2021/07/31 00:18:51;;;;;;;;;;;;;;;21.90;71.02;99138.63;5071526;28;967;-59
2021/07/31 00:21:17;;;;;;;;;;;;;;;21.85;71.38;99139.31;5071026;28;897;-59
2021/07/31 00:23:44;;;;;;;;;;;;;;;21.84;71.57;99137.78;5071692;28;885;-59
2021/07/31 00:26:11;;;;;;;;;;;;;;;21.95;71.25;99138.66;5071371;28;818;-59
2021/07/31 00:28:38;;;;;;;;;;;;;;;21.95;71.38;99143.50;5071477;28;862;-59
2021/07/31 00:31:05;;;;;;;;;;;;;;;21.86;71.50;99138.06;5071285;28;1959;-59
2021/07/31 00:33:32;;;;;;;;;;;;;;;21.74;71.53;99135.16;5071459;28;872;-59
2021/07/31 00:35:59;;;;;;;;;;;;;;;21.64;71.98;99142.19;5071353;28;909;-59
2021/07/31 00:38:25;;;;;;;;;;;;;;;21.50;72.25;99141.00;5071296;28;897;-59
2021/07/31 00:40:52;;;;;;;;;;;;;;;21.43;72.81;99144.25;5071340;28;817;-59
2021/07/31 00:43:19;;;;;;;;;;;;;;;21.39;72.57;99138.81;5071340;28;831;-59
2021/07/31 00:45:46;;;;;;;;;;;;;;;21.37;72.58;99146.97;5071290;28;867;-59
2021/07/31 00:48:13;;;;;;;;;;;;;;;21.35;72.68;99143.09;5071234;28;814;-59
2021/07/31 00:50:39;;;;;;;;;;;;;;;21.36;72.80;99150.28;5071408;28;1882;-59
2021/07/31 00:53:06;;;;;;;;;;;;;;;21.36;72.70;99145.44;5071071;28;874;-59
2021/07/31 00:55:35;;;;;;;;;;;;;;;21.29;72.71;99148.66;5071450;28;878;-59
2021/07/31 00:58:02;;;;;;;;;;;;;;;21.25;72.76;99147.31;5071088;28;952;-59
2021/07/31 01:00:29;;;;;;;;;;;;;;;21.20;73.05;99143.94;5071171;28;822;-59
2021/07/31 01:02:56;;;;;;;;;;;;;;;21.17;72.66;99147.00;5071081;28;795;-59
2021/07/31 01:05:23;;;;;;;;;;;;;;;21.14;72.82;99143.09;5071070;28;838;-59
2021/07/31 01:07:50;;;;;;;;;;;;;;;21.10;73.06;99134.13;5071380;28;901;-59
2021/07/31 01:10:18;;;;;;;;;;;;;;;21.10;73.06;99139.75;5070998;28;814;-59
2021/07/31 01:12:45;;;;;;;;;;;;;;;21.08;73.20;99133.84;5070863;28;1889;-59
2021/07/31 01:15:12;;;;;;;;;;;;;;;21.08;73.10;99130.25;5070752;28;1218;-59
2021/07/31 01:17:39;;;;;;;;;;;;;;;21.11;73.17;99130.03;5070975;28;822;-59
2021/07/31 01:20:05;;;;;;;;;;;;;;;21.16;73.14;99129.34;5071271;28;815;-59
2021/07/31 01:22:32;;;;;;;;;;;;;;;21.20;73.28;99126.31;5070887;28;842;-59
2021/07/31 01:25:01;;;;;;;;;;;;;;;21.18;73.38;99128.84;5070848;28;822;-59
2021/07/31 01:27:28;;;;;;;;;;;;;;;21.13;73.66;99132.38;5070819;28;897;-59
2021/07/31 01:29:54;;;;;;;;;;;;;;;21.11;74.32;99118.03;5070869;28;885;-59
2021/07/31 01:32:21;;;;;;;;;;;;;;;21.18;74.21;99123.22;5070844;28;1922;-59
2021/07/31 01:34:48;;;;;;;;;;;;;;;21.17;73.94;99116.84;5074422;28;869;-59
2021/07/31 01:37:15;;;;;;;;;;;;;;;21.13;74.20;99119.09;5074380;28;845;-59
2021/07/31 01:39:42;;;;;;;;;;;;;;;21.09;74.26;99112.16;5074262;28;909;-59
2021/07/31 01:42:09;;;;;;;;;;;;;;;21.11;74.57;99118.03;5074209;28;897;-59
2021/07/31 01:44:35;;;;;;;;;;;;;;;21.11;74.63;99118.81;5074181;28;949;-59
2021/07/31 01:47:02;;;;;;;;;;;;;;;21.06;74.32;99115.91;5074575;28;814;-59
2021/07/31 01:49:28;;;;;;;;;;;;;;;20.90;74.60;99118.03;5074161;28;842;-59
2021/07/31 01:51:55;;;;;;;;;;;;;;;20.84;75.11;99117.19;5074105;28;1952;-59
2021/07/31 01:54:22;;;;;;;;;;;;;;;20.82;74.96;99116.88;5074035;28;822;-59
2021/07/31 01:56:49;;;;;;;;;;;;;;;20.79;75.20;99120.69;5074076;28;868;-59
2021/07/31 01:59:17;;;;;;;;;;;;;;;20.78;75.56;99113.50;5074270;28;953;-59
2021/07/31 02:01:44;;;;;;;;;;;;;;;20.76;75.73;99113.22;5073986;28;872;-59
2021/07/31 02:04:10;;;;;;;;;;;;;;;20.75;75.71;99115.28;5073933;28;822;-59
2021/07/31 02:06:37;;;;;;;;;;;;;;;20.75;76.17;99120.13;5073851;28;834;-59
2021/07/31 02:09:04;;;;;;;;;;;;;;;20.78;76.17;99117.13;5074085;28;833;-59
2021/07/31 02:11:30;;;;;;;;;;;;;;;20.82;76.71;99116.88;5073646;28;2047;-59
2021/07/31 02:13:56;;;;;;;;;;;;;;;20.83;76.73;99107.22;5074043;28;987;-59
2021/07/31 02:16:24;;;;;;;;;;;;;;;20.84;77.02;99108.75;5073458;28;1234;-59
2021/07/31 02:18:51;;;;;;;;;;;;;;;20.84;77.03;99105.16;5073616;28;794;-59
2021/07/31 02:21:18;;;;;;;;;;;;;;;20.85;77.26;99112.34;5073637;28;880;-59
2021/07/31 02:23:45;;;;;;;;;;;;;;;20.84;77.76;99108.75;5073655;28;842;-59
2021/07/31 02:26:12;;;;;;;;;;;;;;;20.82;78.01;99104.88;5073527;28;888;-59
2021/07/31 02:28:39;;;;;;;;;;;;;;;20.79;78.25;99104.59;5073360;28;838;-59
2021/07/31 02:31:06;;;;;;;;;;;;;;;20.80;78.49;99111.00;5073414;28;1918;-59
2021/07/31 02:33:33;;;;;;;;;;;;;;;20.79;78.77;99112.25;5073198;28;905;-59
2021/07/31 02:36:03;;;;;;;;;;;;;;;20.84;78.91;99107.97;5073357;28;818;-59
2021/07/31 02:38:30;;;;;;;;;;;;;;;20.92;78.94;99123.16;5073266;28;908;-59
2021/07/31 02:40:57;;;;;;;;;;;;;;;20.91;78.94;99119.59;5073182;28;870;-59
2021/07/31 02:43:24;;;;;;;;;;;;;;;20.93;79.23;99125.50;5073123;28;814;-59
2021/07/31 02:45:51;;;;;;;;;;;;;;;20.95;79.53;99117.34;5073000;28;897;-59
2021/07/31 02:48:18;;;;;;;;;;;;;;;20.93;79.72;99122.69;5073055;28;896;-59
2021/07/31 02:50:45;;;;;;;;;;;;;;;20.88;79.75;99117.75;5072886;28;1944;-59
2021/07/31 02:53:12;;;;;;;;;;;;;;;20.85;79.82;99129.19;5071593;28;1341;-59
2021/07/31 02:55:38;;;;;;;;;;;;;;;20.80;80.16;99128.63;5072869;28;834;-59
2021/07/31 02:58:04;;;;;;;;;;;;;;;20.78;80.33;99124.75;5072909;28;814;-59
2021/07/31 03:00:32;;;;;;;;;;;;;;;20.72;80.27;99129.53;5072774;28;852;-59
2021/07/31 03:02:59;;;;;;;;;;;;;;;20.64;80.51;99137.59;5072809;28;878;-59
2021/07/31 03:05:25;;;;;;;;;;;;;;;20.61;80.78;99135.72;5072715;28;858;-59
2021/07/31 03:07:52;;;;;;;;;;;;;;;20.61;81.11;99132.94;5072884;28;794;-59
2021/07/31 03:10:19;;;;;;;;;;;;;;;20.75;81.35;99136.97;5072559;28;858;-59
2021/07/31 03:12:46;;;;;;;;;;;;;;;20.92;81.12;99128.78;5088006;28;1889;-59
2021/07/31 03:15:13;;;;;;;;;;;;;;;21.10;81.32;99133.34;5072150;28;1189;-59
2021/07/31 03:17:42;;;;;;;;;;;;;;;21.30;80.69;99135.41;5072702;28;806;-59
2021/07/31 03:20:09;;;;;;;;;;;;;;;21.57;80.54;99128.56;5071127;28;1493;-59
2021/07/31 03:22:36;;;;;;;;;;;;;;;21.78;79.95;99132.09;5072205;28;810;-59
2021/07/31 03:25:03;;;;;;;;;;;;;;;21.94;79.81;99130.72;5072335;28;837;-59
2021/07/31 03:27:30;;;;;;;;;;;;;;;22.11;79.37;99133.69;5072226;28;798;-59
2021/07/31 03:29:56;;;;;;;;;;;;;;;22.26;79.41;99128.72;5072244;28;879;-59
2021/07/31 03:32:24;;;;;;;;;;;;;;;22.37;78.81;99137.25;5072170;28;1917;-59
2021/07/31 03:34:50;;;;;;;;;;;;;;;22.45;78.73;99137.56;5072160;28;839;-59
2021/07/31 03:37:17;;;;;;;;;;;;;;;22.53;78.61;99141.47;5072109;28;873;-59
2021/07/31 03:39:44;;;;;;;;;;;;;;;22.63;78.43;99134.34;5072089;28;805;-59
2021/07/31 03:42:11;;;;;;;;;;;;;;;22.76;77.84;99138.78;5072007;28;833;-59
2021/07/31 03:44:38;;;;;;;;;;;;;;;22.84;77.64;99137.81;5071956;28;811;-59
2021/07/31 03:47:05;;;;;;;;;;;;;;;22.98;77.46;99141.75;5071889;28;905;-59
2021/07/31 03:49:32;;;;;;;;;;;;;;;23.07;77.59;99137.22;5071961;28;826;-59
2021/07/31 03:52:00;;;;;;;;;;;;;;;23.16;77.74;99139.81;5071651;28;1981;-59
2021/07/31 03:54:26;;;;;;;;;;;;;;;23.27;77.59;99139.84;5072022;28;798;-59
2021/07/31 03:56:53;;;;;;;;;;;;;;;23.48;77.42;99136.84;5071274;28;893;-59
2021/07/31 03:59:20;;;;;;;;;;;;;;;23.78;76.52;99149.25;5071773;28;806;-59
2021/07/31 04:01:47;;;;;;;;;;;;;;;24.08;76.07;99139.56;5071773;28;814;-59
2021/07/31 04:04:13;;;;;;;;;;;;;;;24.35;75.63;99138.78;5071674;28;871;-59
2021/07/31 04:06:40;;;;;;;;;;;;;;;24.66;75.13;99148.28;5071685;28;802;-59
2021/07/31 04:09:06;;;;;;;;;;;;;;;25.03;74.45;99147.19;5071638;28;802;-59
2021/07/31 04:11:32;;;;;;;;;;;;;;;25.36;73.62;99145.53;5071894;28;1956;-59
2021/07/31 04:13:59;;;;;;;;;;;;;;;25.68;73.00;99154.38;5071871;28;1015;-59
2021/07/31 04:16:26;;;;;;;;;;;;;;;26.00;72.49;99153.94;5071309;28;1462;-59
2021/07/31 04:18:53;;;;;;;;;;;;;;;26.28;71.67;99157.31;5070244;28;913;-59
2021/07/31 04:21:19;;;;;;;;;;;;;;;26.49;70.83;99159.75;5071435;28;885;-59
2021/07/31 04:23:46;;;;;;;;;;;;;;;26.64;70.93;99157.28;5071555;28;826;-59
2021/07/31 04:26:16;;;;;;;;;;;;;;;26.72;70.40;99163.16;5071533;28;904;-59
2021/07/31 04:28:44;;;;;;;;;;;;;;;26.65;70.40;99166.56;5071465;28;798;-59
2021/07/31 04:31:12;;;;;;;;;;;;;;;26.45;70.92;99171.34;5071453;28;1971;-59
2021/07/31 04:33:39;;;;;;;;;;;;;;;26.38;71.18;99174.00;5071378;28;862;-59
2021/07/31 04:36:07;;;;;;;;;;;;;;;26.58;70.71;99167.16;5071402;28;807;-59
2021/07/31 04:38:34;;;;;;;;;;;;;;;26.97;69.78;99168.81;5071384;28;825;-59
2021/07/31 04:41:03;;;;;;;;;;;;;;;27.37;68.91;99169.16;5071313;28;897;-59
2021/07/31 04:43:30;;;;;;;;;;;;;;;27.65;67.42;99172.44;5071698;28;783;-59
2021/07/31 04:45:57;;;;;;;;;;;;;;;27.83;67.09;99178.63;5071941;28;763;-59
2021/07/31 04:48:24;;;;;;;;;;;;;;;27.99;66.76;99177.63;5071588;28;830;-59
2021/07/31 04:50:59;;;;;;;;;;;;;;;27.95;66.25;99180.00;5071467;28;1890;-59
2021/07/31 04:53:26;;;;;;;;;;;;;;;27.94;66.15;99181.34;5071303;28;849;-59
2021/07/31 04:55:53;;;;;;;;;;;;;;;27.97;66.29;99183.09;5071164;28;851;-59
2021/07/31 04:58:21;;;;;;;;;;;;;;;27.95;66.13;99182.09;5071343;28;873;-60
2021/07/31 05:00:47;;;;;;;;;;;;;;;27.93;65.75;99181.88;5071103;28;787;-59
2021/07/31 05:03:14;;;;;;;;;;;;;;;27.95;65.58;99176.41;5071378;28;897;-59
2021/07/31 05:05:44;;;;;;;;;;;;;;;27.99;66.02;99182.56;5071075;28;957;-60
2021/07/31 05:15:54;;;;;;;;;;;;;;;27.80;66.29;99179.69;4992504;28;1347;-59
2021/07/31 05:18:20;;;;;;;;;;;;;;;28.00;66.25;99189.78;4995765;28;878;-60
2021/07/31 05:20:47;;;;;;;;;;;;;;;28.29;65.13;99190.88;4995775;28;862;-60
2021/07/31 05:23:14;;;;;;;;;;;;;;;28.71;64.04;99179.88;4995749;28;879;-60
2021/07/31 05:25:41;;;;;;;;;;;;;;;29.11;62.96;99179.94;4995610;28;806;-59
2021/07/31 05:28:08;;;;;;;;;;;;;;;29.74;61.47;99187.97;4995908;28;850;-60
2021/07/31 05:30:36;;;;;;;;;;;;;;;30.28;59.83;99192.97;4995383;28;1914;-60
2021/07/31 05:33:03;;;;;;;;;;;;;;;30.45;58.90;99189.72;4995289;28;849;-60
2021/07/31 05:35:30;;;;;;;;;;;;;;;30.68;58.63;99189.91;4995251;28;870;-60
2021/07/31 05:37:57;;;;;;;;;;;;;;;31.07;56.94;99187.34;4995460;28;893;-60
2021/07/31 05:40:24;;;;;;;;;;;;;;;31.38;55.65;99191.13;4995253;28;956;-60
2021/07/31 05:42:51;;;;;;;;;;;;;;;31.87;54.63;99193.06;4995218;28;854;-59
2021/07/31 05:45:19;;;;;;;;;;;;;;;32.56;52.23;99195.34;4995037;28;883;-59
2021/07/31 05:47:46;;;;;;;;;;;;;;;32.94;51.18;99194.56;4994967;28;869;-60
2021/07/31 05:50:11;;;;;;;;;;;;;;;33.01;50.87;99193.81;4994997;28;819;-60
2021/07/31 05:52:39;;;;;;;;;;;;;;;33.30;49.71;99191.47;4994949;28;1878;-60
2021/07/31 05:55:06;;;;;;;;;;;;;;;33.75;49.26;99189.78;4995174;28;810;-60
2021/07/31 05:57:34;;;;;;;;;;;;;;;34.36;48.17;99197.31;4994975;28;796;-60
2021/07/31 06:00:01;;;;;;;;;;;;;;;34.62;47.20;99198.06;4994824;28;850;-60
2021/07/31 06:02:27;;;;;;;;;;;;;;;34.94;46.55;99202.97;4994733;28;843;-60
2021/07/31 06:04:53;;;;;;;;;;;;;;;35.32;45.56;99201.09;4994900;28;827;-60
2021/07/31 06:07:20;;;;;;;;;;;;;;;35.61;44.63;99203.41;4994835;28;1021;-60
2021/07/31 06:09:50;;;;;;;;;;;;;;;35.32;44.48;99203.97;4994910;28;932;-60
2021/07/31 06:12:18;;;;;;;;;;;;;;;35.37;44.43;99211.56;4994387;28;1950;-60
2021/07/31 06:14:45;;;;;;;;;;;;;;;35.58;44.09;99203.25;4960830;28;1229;-60
2021/07/31 06:17:12;;;;;;;;;;;;;;;35.82;43.80;99206.63;4976949;28;1197;-60
2021/07/31 06:19:38;;;;;;;;;;;;;;;35.89;43.69;99205.78;4993833;28;857;-60
2021/07/31 06:22:06;;;;;;;;;;;;;;;36.26;41.65;99205.84;4994223;28;894;-60
2021/07/31 06:24:32;;;;;;;;;;;;;;;36.06;42.52;99201.31;4994348;28;894;-60
2021/07/31 06:26:59;;;;;;;;;;;;;;;36.07;43.01;99202.84;4994232;28;850;-60
2021/07/31 06:29:26;;;;;;;;;;;;;;;36.32;41.98;99197.72;4994448;28;870;-60
2021/07/31 06:31:51;;;;;;;;;;;;;;;36.56;41.36;99193.09;4994308;28;1914;-60
2021/07/31 06:34:18;;;;;;;;;;;;;;;36.23;41.14;99201.28;4994578;28;874;-61
2021/07/31 06:36:45;;;;;;;;;;;;;;;36.35;41.21;99190.00;4994126;28;898;-60
2021/07/31 06:39:12;;;;;;;;;;;;;;;36.33;41.05;99199.22;4994148;28;855;-60
2021/07/31 06:41:38;;;;;;;;;;;;;;;36.69;40.38;99191.94;4994150;28;855;-60
2021/07/31 06:44:05;;;;;;;;;;;;;;;36.94;40.25;99197.47;4994105;28;862;-60
2021/07/31 06:46:32;;;;;;;;;;;;;;;36.77;40.72;99200.47;4994499;28;855;-60
2021/07/31 06:49:01;;;;;;;;;;;;;;;36.73;39.92;99195.16;4994016;28;883;-60
2021/07/31 06:51:28;;;;;;;;;;;;;;;36.84;39.83;99196.69;4993721;28;1882;-60
2021/07/31 06:53:58;;;;;;;;;;;;;;;36.95;39.52;99192.47;4993805;28;787;-60
2021/07/31 06:56:25;;;;;;;;;;;;;;;37.24;38.55;99189.66;4993734;28;815;-60
2021/07/31 06:58:52;;;;;;;;;;;;;;;37.18;38.41;99192.06;4993597;28;838;-60
2021/07/31 07:01:19;;;;;;;;;;;;;;;36.90;39.32;99190.66;4993676;28;835;-60
2021/07/31 07:03:47;;;;;;;;;;;;;;;37.14;38.55;99194.66;4993537;28;816;-61
2021/07/31 07:06:14;;;;;;;;;;;;;;;36.92;38.87;99194.44;4993428;28;859;-60
2021/07/31 07:08:41;;;;;;;;;;;;;;;37.18;38.05;99184.19;4993436;28;953;-60
2021/07/31 07:11:11;;;;;;;;;;;;;;;37.45;37.31;99186.16;4993250;28;1950;-60
2021/07/31 07:13:38;;;;;;;;;;;;;;;37.56;37.14;99191.34;4993702;28;992;-60
2021/07/31 07:16:05;;;;;;;;;;;;;;;37.76;37.05;99191.31;4993219;28;1443;-60
2021/07/31 07:18:32;;;;;;;;;;;;;;;38.11;36.03;99196.72;4993219;28;874;-60
2021/07/31 07:21:02;;;;;;;;;;;;;;;38.49;35.11;99197.94;4975697;28;1190;-61
2021/07/31 07:23:29;;;;;;;;;;;;;;;38.69;34.44;99196.50;4993362;28;858;-60
2021/07/31 07:25:55;;;;;;;;;;;;;;;38.67;34.03;99199.25;4993112;28;795;-61
2021/07/31 07:28:23;;;;;;;;;;;;;;;38.24;34.52;99199.13;4993386;28;846;-60
2021/07/31 07:30:50;;;;;;;;;;;;;;;38.24;34.62;99192.56;4992097;28;1926;-60
2021/07/31 07:33:17;;;;;;;;;;;;;;;38.71;34.39;99199.53;4993016;28;818;-60
2021/07/31 07:35:44;;;;;;;;;;;;;;;39.01;33.36;99197.25;4992944;28;815;-60
2021/07/31 07:38:11;;;;;;;;;;;;;;;38.96;33.76;99204.88;4992814;28;886;-60
2021/07/31 07:40:37;;;;;;;;;;;;;;;39.09;33.59;99194.91;4992919;28;815;-60
2021/07/31 07:43:04;;;;;;;;;;;;;;;39.11;32.89;99195.03;4992800;28;838;-60
2021/07/31 07:45:31;;;;;;;;;;;;;;;38.72;33.58;99191.63;4992709;28;902;-60
2021/07/31 07:47:57;;;;;;;;;;;;;;;38.88;33.59;99203.53;4992745;28;839;-61
2021/07/31 07:50:24;;;;;;;;;;;;;;;38.89;33.65;99193.50;4992713;28;889;-61
2021/07/31 07:52:51;;;;;;;;;;;;;;;38.91;33.58;99194.38;4992909;28;1978;-60
2021/07/31 07:55:17;;;;;;;;;;;;;;;38.72;33.02;99200.28;4992650;28;807;-60
2021/07/31 07:57:44;;;;;;;;;;;;;;;38.22;33.28;99198.97;4992546;28;807;-60
2021/07/31 08:00:11;;;;;;;;;;;;;;;38.12;33.34;99186.69;4992587;28;894;-60
2021/07/31 08:02:38;;;;;;;;;;;;;;;38.53;33.17;99193.22;4992695;28;804;-60
2021/07/31 08:05:05;;;;;;;;;;;;;;;38.87;32.40;99184.69;4992484;28;850;-61
2021/07/31 08:07:32;;;;;;;;;;;;;;;38.91;31.80;99194.38;4992365;28;906;-60
2021/07/31 08:09:59;;;;;;;;;;;;;;;38.66;31.50;99197.72;4992510;28;834;-60
2021/07/31 08:12:26;;;;;;;;;;;;;;;38.58;31.36;99188.53;4992289;28;1926;-61
2021/07/31 08:14:52;;;;;;;;;;;;;;;38.17;32.50;99189.28;4992415;28;1197;-61
2021/07/31 08:17:19;;;;;;;;;;;;;;;38.23;32.38;99186.03;4992261;28;894;-60
2021/07/31 08:19:45;;;;;;;;;;;;;;;38.44;32.71;99184.59;4992561;28;863;-60
2021/07/31 08:22:12;;;;;;;;;;;;;;;39.09;31.33;99186.25;4992251;28;843;-60
2021/07/31 08:24:39;;;;;;;;;;;;;;;39.42;30.29;99188.44;4992221;28;807;-60
2021/07/31 08:27:06;;;;;;;;;;;;;;;39.33;29.97;99186.38;4992206;28;913;-61
2021/07/31 08:29:32;;;;;;;;;;;;;;;39.57;29.63;99187.97;4992210;28;867;-60
2021/07/31 08:31:59;;;;;;;;;;;;;;;39.47;29.07;99187.31;4992413;28;1922;-60
2021/07/31 08:34:27;;;;;;;;;;;;;;;39.29;28.11;99171.63;4992152;28;823;-60
2021/07/31 08:36:53;;;;;;;;;;;;;;;39.20;27.61;99182.66;4992179;28;851;-60
2021/07/31 08:39:19;;;;;;;;;;;;;;;38.93;27.56;99174.31;4992093;28;823;-60
2021/07/31 08:41:47;;;;;;;;;;;;;;;38.52;27.90;99179.44;4992356;28;851;-60
2021/07/31 08:44:13;;;;;;;;;;;;;;;38.65;27.66;99172.38;4996034;28;955;-60
2021/07/31 08:46:42;;;;;;;;;;;;;;;38.71;27.56;99176.44;4996392;28;827;-60
2021/07/31 08:49:08;;;;;;;;;;;;;;;38.66;26.87;99171.72;4995919;28;910;-60
2021/07/31 08:51:35;;;;;;;;;;;;;;;38.51;27.68;99180.78;4995980;28;1898;-60
2021/07/31 08:54:02;;;;;;;;;;;;;;;38.62;27.53;99183.00;4996110;28;879;-60
2021/07/31 08:56:29;;;;;;;;;;;;;;;38.64;27.71;99182.38;4996106;28;942;-60
2021/07/31 08:58:59;;;;;;;;;;;;;;;38.69;27.18;99178.44;4995767;28;912;-60
2021/07/31 09:01:26;;;;;;;;;;;;;;;38.61;27.50;99184.38;4995832;28;834;-60
2021/07/31 09:03:56;;;;;;;;;;;;;;;38.88;26.61;99180.41;4995904;28;893;-60
2021/07/31 09:06:26;;;;;;;;;;;;;;;38.64;27.52;99174.47;4995598;28;866;-60
2021/07/31 09:08:54;;;;;;;;;;;;;;;38.68;27.27;99179.78;4995913;28;862;-60
2021/07/31 09:11:20;;;;;;;;;;;;;;;38.56;27.37;99176.81;4995717;28;1961;-60
2021/07/31 09:13:47;;;;;;;;;;;;;;;38.57;27.37;99181.97;4995788;28;985;-60
2021/07/31 09:16:14;;;;;;;;;;;;;;;38.27;27.57;99183.44;4995226;28;1388;-60
2021/07/31 09:18:45;;;;;;;;;;;;;;;38.07;27.92;99179.09;4995445;28;910;-60
2021/07/31 09:21:16;;;;;;;;;;;;;;;38.05;28.44;99173.22;4995499;28;842;-60
2021/07/31 09:23:49;;;;;;;;;;;;;;;38.37;28.12;99175.50;4995470;28;881;-60
2021/07/31 09:26:16;;;;;;;;;;;;;;;38.27;27.87;99180.56;4995417;28;850;-60
2021/07/31 09:28:43;;;;;;;;;;;;;;;38.24;28.21;99184.69;4995282;28;862;-60
2021/07/31 09:31:14;;;;;;;;;;;;;;;38.19;28.51;99179.97;4995139;28;1982;-60
2021/07/31 09:33:44;;;;;;;;;;;;;;;38.33;28.54;99169.44;4995147;28;844;-60
2021/07/31 09:36:11;;;;;;;;;;;;;;;38.38;28.76;99171.25;4995206;28;831;-60
2021/07/31 09:38:56;;;;;;;;;;;;;;;38.25;28.62;99174.66;4995151;28;831;-60
2021/07/31 09:41:24;;;;;;;;;;;;;;;38.11;28.60;99167.84;4993661;28;1316;-60
2021/07/31 09:44:00;;;;;;;;;;;;;;;37.65;29.00;99160.22;4995011;28;876;-60
2021/07/31 09:46:34;;;;;;;;;;;;;;;37.33;30.36;99168.72;4995013;28;911;-59
2021/07/31 09:49:01;;;;;;;;;;;;;;;37.04;30.90;99165.03;4977721;28;926;-60
2021/07/31 09:51:32;;;;;;;;;;;;;;;36.83;31.21;99163.50;4994824;28;1875;-60
2021/07/31 09:54:00;;;;;;;;;;;;;;;36.77;31.88;99157.28;4993767;28;941;-59
2021/07/31 09:56:29;;;;;;;;;;;;;;;36.59;33.12;99153.72;4994838;28;874;-60
2021/07/31 09:58:58;;;;;;;;;;;;;;;36.64;32.73;99157.69;4977363;28;871;-59
2021/07/31 10:01:26;;;;;;;;;;;;;;;36.55;32.72;99159.16;4994721;28;866;-60
2021/07/31 10:03:53;;;;;;;;;;;;;;;36.45;31.62;99152.63;4994580;28;860;-60
2021/07/31 10:06:20;;;;;;;;;;;;;;;36.48;32.51;99154.31;4994841;28;807;-60
2021/07/31 10:08:47;;;;;;;;;;;;;;;36.51;32.64;99156.75;4994448;28;862;-60
2021/07/31 10:11:12;;;;;;;;;;;;;;;36.56;32.53;99149.19;4994802;28;1894;-60
2021/07/31 10:13:40;;;;;;;;;;;;;;;36.49;32.47;99147.19;4994632;28;896;-60
2021/07/31 10:16:06;;;;;;;;;;;;;;;36.59;32.89;99139.31;4994260;28;1298;-59
2021/07/31 10:18:33;;;;;;;;;;;;;;;36.30;32.62;99142.13;4994393;28;879;-60
2021/07/31 10:21:07;;;;;;;;;;;;;;;36.21;32.69;99148.59;4994396;28;816;-60
2021/07/31 10:23:53;;;;;;;;;;;;;;;36.26;32.88;99139.69;4994302;28;850;-60
2021/07/31 10:26:20;;;;;;;;;;;;;;;36.29;33.74;99131.97;4994783;28;843;-59
2021/07/31 10:28:46;;;;;;;;;;;;;;;36.30;32.66;99134.25;4994451;28;898;-60
2021/07/31 10:31:33;;;;;;;;;;;;;;;36.35;33.38;99130.31;4994227;28;1918;-60
2021/07/31 10:34:00;;;;;;;;;;;;;;;36.47;33.25;99124.03;4994098;28;847;-60
2021/07/31 10:36:27;;;;;;;;;;;;;;;36.88;33.08;99118.50;4994031;28;795;-60
2021/07/31 10:38:53;;;;;;;;;;;;;;;36.95;32.38;99117.59;4993928;28;783;-59
2021/07/31 10:41:39;;;;;;;;;;;;;;;36.97;33.23;99118.50;4993913;28;1241;-60
2021/07/31 10:44:09;;;;;;;;;;;;;;;37.10;32.95;99116.56;4994202;28;846;-60
2021/07/31 10:46:35;;;;;;;;;;;;;;;37.20;32.68;99114.44;4993852;28;827;-60
2021/07/31 10:49:21;;;;;;;;;;;;;;;37.24;31.27;99111.13;4993913;28;807;-60
2021/07/31 10:51:48;;;;;;;;;;;;;;;37.20;32.48;99114.44;4993705;28;1882;-60
2021/07/31 10:54:14;;;;;;;;;;;;;;;37.12;32.15;99113.84;4993665;28;930;-60
2021/07/31 10:56:53;;;;;;;;;;;;;;;36.96;32.56;99111.25;4993924;28;942;-60
2021/07/31 10:59:20;;;;;;;;;;;;;;;36.98;31.86;99102.75;4976317;28;811;-60
2021/07/31 11:01:47;;;;;;;;;;;;;;;36.97;32.68;99103.34;4993536;28;934;-60
2021/07/31 11:04:32;;;;;;;;;;;;;;;37.13;32.96;99100.97;4993457;28;1154;-61
2021/07/31 11:07:09;;;;;;;;;;;;;;;37.03;32.36;99094.41;4993679;28;890;-60
2021/07/31 11:09:36;;;;;;;;;;;;;;;36.87;31.33;99094.72;4993257;28;915;-60
2021/07/31 11:12:21;;;;;;;;;;;;;;;36.85;32.15;99096.69;4993288;28;1977;-60
2021/07/31 11:15:04;;;;;;;;;;;;;;;37.00;32.17;99093.53;4993448;28;1273;-60
2021/07/31 11:17:31;;;;;;;;;;;;;;;36.90;32.28;99095.63;4993309;28;809;-60
2021/07/31 11:19:57;;;;;;;;;;;;;;;36.73;31.74;99088.66;4993319;28;903;-60
2021/07/31 11:22:27;;;;;;;;;;;;;;;36.91;32.71;99089.25;4993217;28;826;-60
2021/07/31 11:24:55;;;;;;;;;;;;;;;37.24;32.51;99083.06;4975881;28;820;-60
2021/07/31 11:27:22;;;;;;;;;;;;;;;37.20;32.77;99082.75;4993134;28;996;-60
2021/07/31 11:29:52;;;;;;;;;;;;;;;37.13;32.97;99086.56;4993310;28;783;-60
2021/07/31 11:32:26;;;;;;;;;;;;;;;37.34;32.95;99083.81;4992927;28;1922;-61
2021/07/31 11:34:53;;;;;;;;;;;;;;;37.25;32.64;99078.06;4992911;28;804;-60
2021/07/31 11:37:21;;;;;;;;;;;;;;;37.21;32.89;99078.50;4992831;28;887;-61
2021/07/31 11:39:47;;;;;;;;;;;;;;;37.29;32.08;99072.59;4992859;28;1054;-60
2021/07/31 11:42:20;;;;;;;;;;;;;;;37.43;32.67;99076.50;4992905;28;913;-60
2021/07/31 11:44:47;;;;;;;;;;;;;;;37.43;32.11;99072.84;4992990;28;918;-60
2021/07/31 11:47:13;;;;;;;;;;;;;;;37.39;32.52;99073.34;4992832;28;799;-60
2021/07/31 11:49:40;;;;;;;;;;;;;;;37.42;32.31;99066.34;4992743;28;858;-60
2021/07/31 11:52:07;;;;;;;;;;;;;;;37.42;32.33;99074.97;4992659;28;1898;-61
2021/07/31 11:54:38;;;;;;;;;;;;;;;37.27;32.80;99061.66;4992636;28;851;-60
2021/07/31 11:57:05;;;;;;;;;;;;;;;37.30;32.57;99057.59;4992814;28;843;-60
2021/07/31 11:59:33;;;;;;;;;;;;;;;37.53;32.38;99065.69;4992954;28;812;-61
2021/07/31 12:02:00;;;;;;;;;;;;;;;37.77;32.35;99060.97;4992466;28;866;-60
2021/07/31 12:04:42;;;;;;;;;;;;;;;37.69;32.08;99062.53;4992520;28;981;-60
2021/07/31 12:07:15;;;;;;;;;;;;;;;37.59;31.87;99068.31;4992392;28;807;-61
2021/07/31 12:09:41;;;;;;;;;;;;;;;37.56;32.47;99063.75;4992440;28;815;-60
2021/07/31 12:12:24;;;;;;;;;;;;;;;37.49;32.45;99064.66;4991085;28;1918;-60
2021/07/31 12:15:10;;;;;;;;;;;;;;;37.77;32.69;99055.19;4992349;28;1272;-60
2021/07/31 12:17:37;;;;;;;;;;;;;;;37.84;32.28;99058.53;4991773;28;819;-61
2021/07/31 12:20:04;;;;;;;;;;;;;;;37.68;32.36;99073.28;4992427;28;803;-62
2021/07/31 12:22:31;;;;;;;;;;;;;;;37.66;32.56;99063.72;4992866;28;807;-61
2021/07/31 12:25:07;;;;;;;;;;;;;;;37.81;32.29;99072.00;4992650;28;819;-61
2021/07/31 12:27:55;;;;;;;;;;;;;;;37.66;32.22;99064.50;4992122;28;1236;-60
2021/07/31 12:30:31;;;;;;;;;;;;;;;37.43;32.06;99059.22;4992141;28;835;-61
2021/07/31 12:33:07;;;;;;;;;;;;;;;37.47;32.08;99073.94;4992054;28;1984;-60
2021/07/31 12:35:33;;;;;;;;;;;;;;;37.69;32.15;99065.41;4992504;28;826;-61
2021/07/31 12:38:00;;;;;;;;;;;;;;;37.70;31.73;99066.91;4992190;28;937;-60
2021/07/31 12:40:27;;;;;;;;;;;;;;;37.86;31.60;99067.31;4992145;28;807;-60
2021/07/31 12:42:54;;;;;;;;;;;;;;;37.66;31.14;99075.25;4992155;28;897;-61
2021/07/31 12:45:20;;;;;;;;;;;;;;;37.68;31.69;99066.75;4992078;28;881;-61
2021/07/31 12:47:46;;;;;;;;;;;;;;;37.95;30.57;99069.38;4992104;28;854;-62
2021/07/31 12:50:13;;;;;;;;;;;;;;;38.08;29.95;99082.56;4992062;28;917;-60
2021/07/31 12:52:40;;;;;;;;;;;;;;;38.34;30.05;99077.88;4991890;28;1886;-62
2021/07/31 12:55:08;;;;;;;;;;;;;;;38.35;29.83;99079.38;4992068;28;846;-61
2021/07/31 12:57:34;;;;;;;;;;;;;;;38.56;28.65;99073.66;4991902;28;882;-61
2021/07/31 13:00:01;;;;;;;;;;;;;;;38.59;27.85;99078.19;4991829;28;936;-61
2021/07/31 13:02:28;;;;;;;;;;;;;;;38.58;27.62;99075.94;4992038;28;982;-61
2021/07/31 13:04:55;;;;;;;;;;;;;;;38.69;27.86;99081.00;4991959;28;847;-61
2021/07/31 13:07:22;;;;;;;;;;;;;;;38.54;27.05;99081.44;4991776;28;823;-61
2021/07/31 13:09:48;;;;;;;;;;;;;;;38.31;27.74;99070.44;4991918;28;807;-61
2021/07/31 13:12:15;;;;;;;;;;;;;;;38.22;27.23;99080.69;4991930;28;1894;-61
2021/07/31 13:14:43;;;;;;;;;;;;;;;38.14;28.01;99080.09;4992035;28;1386;-62
2021/07/31 13:17:09;;;;;;;;;;;;;;;38.16;27.42;99083.13;4991810;28;859;-61